Time;durP1;ratioP1;P1;durP2;ratioP2;P2;SDS_P1;SDS_P2;PMS_P1;PMS_P2;Temp;Humidity;BMP_temperature;BMP_pressure;BME280_temperature;BME280_humidity;BME280_pressure;Samples;Min_cycle;Max_cycle;Signal;HPM_P1;HPM_P2
2023/09/13 00:02:14;;;;;;;4.57;4.17;;;;;;;21.88;100.00;100050.94;4954040;28;20305;-78
2023/09/13 00:04:39;;;;;;;4.87;4.43;;;;;;;21.86;100.00;100048.38;4968343;28;20272;-79
2023/09/13 00:07:04;;;;;;;4.87;4.47;;;;;;;21.83;100.00;100038.06;4962715;28;20182;-79
2023/09/13 00:09:30;;;;;;;4.37;4.07;;;;;;;21.82;100.00;100033.72;4965925;28;20190;-79
2023/09/13 00:11:55;;;;;;;5.00;4.03;;;;;;;21.80;100.00;100027.69;4959996;28;20337;-79
2023/09/13 00:14:20;;;;;;;4.50;4.00;;;;;;;21.76;100.00;100027.03;4970638;28;20686;-79
2023/09/13 00:16:46;;;;;;;5.23;4.27;;;;;;;21.75;100.00;100032.38;4970558;28;20194;-79
2023/09/13 00:19:11;;;;;;;4.33;4.03;;;;;;;21.72;100.00;100029.94;4962489;28;20185;-78
2023/09/13 00:21:40;;;;;;;5.33;4.03;;;;;;;21.70;100.00;100023.94;4964263;28;20196;-79
2023/09/13 00:24:09;;;;;;;4.20;3.90;;;;;;;21.68;100.00;100021.38;4965837;28;20207;-79
2023/09/13 00:26:34;;;;;;;3.90;3.60;;;;;;;21.66;100.00;100022.41;4958760;28;20260;-79
2023/09/13 00:28:59;;;;;;;4.23;3.93;;;;;;;21.64;100.00;100019.84;4961611;28;20185;-79
2023/09/13 00:31:25;;;;;;;4.00;3.70;;;;;;;21.65;100.00;100031.25;4972618;28;20196;-79
2023/09/13 00:33:50;;;;;;;4.00;3.70;;;;;;;21.63;100.00;100031.31;4964784;28;21017;-79
2023/09/13 00:36:15;;;;;;;4.40;4.10;;;;;;;21.60;100.00;100032.38;4967997;28;20181;-79
2023/09/13 00:38:41;;;;;;;4.03;3.70;;;;;;;21.58;100.00;100023.66;4971855;28;20281;-79
2023/09/13 00:41:06;;;;;;;4.23;3.93;;;;;;;21.57;100.00;100026.41;4975884;28;20272;-80
2023/09/13 00:43:31;;;;;;;4.03;3.73;;;;;;;21.53;100.00;100024.88;4971351;28;20206;-78
2023/09/13 00:45:57;;;;;;;4.30;3.87;;;;;;;21.51;100.00;100025.00;4978968;28;20263;-78
2023/09/13 00:48:23;;;;;;;4.40;4.00;;;;;;;21.49;100.00;100018.97;4976848;28;20180;-80
2023/09/13 00:50:50;;;;;;;4.33;3.93;;;;;;;21.45;100.00;100022.72;4973646;28;20184;-78
2023/09/13 00:53:16;;;;;;;4.40;4.00;;;;;;;21.43;100.00;100032.47;4976721;28;20204;-80
2023/09/13 00:55:43;;;;;;;3.67;3.47;;;;;;;21.41;100.00;100036.97;4973367;28;20570;-78
2023/09/13 00:58:09;;;;;;;4.20;3.90;;;;;;;21.36;100.00;100037.25;4980166;28;20181;-78
2023/09/13 01:00:35;;;;;;;4.40;4.00;;;;;;;21.34;100.00;100040.91;4977539;28;20260;-79
2023/09/13 01:03:05;;;;;;;4.40;4.10;;;;;;;21.30;100.00;100041.09;4960636;28;20252;-79
2023/09/13 01:05:30;;;;;;;4.13;3.83;;;;;;;21.27;100.00;100045.69;4970351;28;20194;-81
2023/09/13 01:07:56;;;;;;;3.90;3.60;;;;;;;21.25;100.00;100045.75;4987902;28;20678;-80
2023/09/13 01:10:21;;;;;;;4.60;4.20;;;;;;;21.23;100.00;100054.69;4963778;28;20194;-79
2023/09/13 01:12:46;;;;;;;4.60;4.13;;;;;;;21.20;100.00;100058.34;4963728;28;20271;-79
2023/09/13 01:15:12;;;;;;;4.00;3.70;;;;;;;21.15;100.00;100053.34;4969776;28;20210;-80
2023/09/13 01:18:08;;;;;;;3.70;3.50;;;;;;;21.14;100.00;100064.81;4974833;28;20793;-80
2023/09/13 01:20:58;;;;;;;3.93;3.63;;;;;;;21.11;100.00;100069.38;4966110;28;20189;-80
2023/09/13 01:23:45;;;;;;;4.40;4.00;;;;;;;21.08;100.00;100066.94;4974304;28;20204;-80
2023/09/13 01:26:44;;;;;;;4.47;4.07;;;;;;;21.05;100.00;100065.31;4965176;28;20272;-78
2023/09/13 01:29:14;;;;;;;4.07;3.77;;;;;;;21.05;100.00;100072.38;4970860;28;20664;-79
2023/09/13 01:31:40;;;;;;;4.10;3.73;;;;;;;21.02;100.00;100076.03;4975814;28;20190;-78
2023/09/13 01:34:06;;;;;;;4.07;3.77;;;;;;;21.02;100.00;100076.03;4970295;28;20585;-79
2023/09/13 01:36:31;;;;;;;3.70;3.40;;;;;;;21.01;100.00;100076.97;4970168;28;20197;-79
2023/09/13 01:38:56;;;;;;;4.00;3.70;;;;;;;20.99;100.00;100071.78;4982624;28;20200;-79
2023/09/13 01:41:42;;;;;;;7.77;4.30;;;;;;;21.00;100.00;100068.22;4976000;28;20182;-79
2023/09/13 01:44:08;;;;;;;4.13;3.83;;;;;;;21.00;100.00;100056.88;4971936;28;20236;-81
2023/09/13 01:46:38;;;;;;;4.27;3.90;;;;;;;20.99;100.00;100050.75;4975079;28;20189;-79
2023/09/13 01:49:04;;;;;;;4.20;3.70;;;;;;;20.99;100.00;100036.75;4970798;28;20186;-79
2023/09/13 01:51:32;;;;;;;4.03;3.73;;;;;;;21.00;100.00;100038.44;4966608;28;20193;-79
2023/09/13 01:53:57;;;;;;;3.80;3.50;;;;;;;21.01;100.00;100040.16;4968501;28;20261;-79
2023/09/13 01:56:22;;;;;;;3.60;3.30;;;;;;;21.00;100.00;100039.28;4978574;28;20182;-80
2023/09/13 01:58:48;;;;;;;4.00;3.57;;;;;;;21.00;100.00;100041.91;4966132;28;20194;-79
2023/09/13 02:01:14;;;;;;;4.17;3.77;;;;;;;21.01;100.00;100040.97;4967765;28;20577;-80
2023/09/13 02:03:40;;;;;;;3.40;3.20;;;;;;;21.00;100.00;100049.81;4970187;28;20241;-79
2023/09/13 02:06:05;;;;;;;3.63;3.37;;;;;;;20.99;100.00;100049.91;4971641;28;20187;-80
2023/09/13 02:08:30;;;;;;;3.10;2.90;;;;;;;20.98;100.00;100054.31;4971543;28;20915;-79
2023/09/13 02:10:55;;;;;;;3.23;3.03;;;;;;;20.98;100.00;100056.09;4972488;28;20193;-80
2023/09/13 02:13:21;;;;;;;3.10;2.87;;;;;;;20.96;100.00;100064.06;4973184;28;20288;-79
2023/09/13 02:15:46;;;;;;;3.80;3.50;;;;;;;20.97;100.00;100067.56;4968888;28;20217;-79
2023/09/13 02:18:12;;;;;;;3.60;3.33;;;;;;;20.95;100.00;100072.88;4971291;28;20209;-78
2023/09/13 02:20:37;;;;;;;3.33;3.13;;;;;;;20.94;100.00;100071.22;4971927;28;20277;-80
2023/09/13 02:23:02;;;;;;;3.87;3.57;;;;;;;20.95;100.00;100079.94;4971998;28;20219;-79
2023/09/13 02:25:28;;;;;;;4.50;3.60;;;;;;;20.95;100.00;100079.94;4970508;28;20295;-79
2023/09/13 02:27:53;;;;;;;3.83;3.53;;;;;;;20.92;100.00;100086.22;4967630;28;20197;-79
2023/09/13 02:30:18;;;;;;;3.57;3.27;;;;;;;20.92;100.00;100094.13;4965771;28;20329;-79
2023/09/13 02:32:44;;;;;;;4.10;3.80;;;;;;;20.92;100.00;100102.00;4966327;28;20210;-80
2023/09/13 02:35:09;;;;;;;3.80;3.50;;;;;;;20.92;100.00;100104.63;4971622;28;20576;-79
2023/09/13 02:37:35;;;;;;;3.73;3.43;;;;;;;20.92;100.00;100101.16;4966249;28;20607;-79
2023/09/13 02:40:00;;;;;;;3.70;3.40;;;;;;;20.95;100.00;100109.72;4983297;28;20303;-79
2023/09/13 02:42:27;;;;;;;3.70;3.43;;;;;;;20.96;100.00;100102.69;4966175;28;20241;-79
2023/09/13 02:44:52;;;;;;;3.50;3.23;;;;;;;20.97;100.00;100101.75;4973687;28;20178;-79
2023/09/13 02:47:17;;;;;;;3.17;2.97;;;;;;;20.97;100.00;100104.38;4972005;28;20329;-79
2023/09/13 02:49:43;;;;;;;4.00;3.30;;;;;;;20.96;100.00;100098.25;4977885;28;20186;-79
2023/09/13 02:52:08;;;;;;;3.53;3.23;;;;;;;20.95;100.00;100114.97;4972741;28;20260;-79
2023/09/13 02:54:34;;;;;;;3.80;3.50;;;;;;;20.91;100.00;100104.69;4979045;28;20955;-79
2023/09/13 02:57:00;;;;;;;3.43;3.13;;;;;;;20.90;100.00;100111.75;4974275;28;20190;-80
2023/09/13 02:59:25;;;;;;;3.10;2.90;;;;;;;20.86;100.00;100108.47;4981230;28;20189;-81
2023/09/13 03:01:51;;;;;;;3.83;3.53;;;;;;;20.85;100.00;100119.91;4978160;28;20682;-78
2023/09/13 03:04:16;;;;;;;3.80;3.50;;;;;;;20.83;100.00;100108.63;4987080;28;20307;-79
2023/09/13 03:06:42;;;;;;;3.50;3.20;;;;;;;20.82;100.00;100113.94;4979615;28;20760;-80
2023/09/13 03:09:07;;;;;;;3.13;2.93;;;;;;;20.80;100.00;100116.66;4966886;28;20197;-80
2023/09/13 03:11:35;;;;;;;3.70;3.40;;;;;;;20.78;100.00;100118.53;4967815;28;20681;-79
2023/09/13 03:14:01;;;;;;;3.80;3.50;;;;;;;20.80;100.00;100115.81;4978906;28;20247;-80
2023/09/13 03:16:26;;;;;;;3.23;2.93;;;;;;;20.80;100.00;100100.91;4972814;28;20189;-79
2023/09/13 03:18:51;;;;;;;3.47;3.17;;;;;;;20.82;100.00;100098.16;4970576;28;20624;-79
2023/09/13 03:21:20;;;;;;;4.00;3.70;;;;;;;;;;4966364;28;20843;-80
2023/09/13 03:23:46;;;;;;;3.13;2.93;;;;;;;;;;4989070;28;20263;-79
2023/09/13 03:26:15;;;;;;;3.60;3.30;;;;;;;20.82;100.00;100090.28;4961909;28;20580;-79
2023/09/13 03:28:44;;;;;;;3.50;3.20;;;;;;;20.82;100.00;100085.00;4963490;28;20202;-79
2023/09/13 03:31:13;;;;;;;3.87;3.50;;;;;;;20.79;100.00;100078.16;4980004;28;20189;-79
2023/09/13 03:33:39;;;;;;;3.53;3.23;;;;;;;20.79;100.00;100070.25;4969575;28;20210;-79
2023/09/13 03:36:08;;;;;;;3.53;3.23;;;;;;;;;;4972353;28;20793;-80
2023/09/13 03:38:35;;;;;;;3.30;3.10;;;;;;;20.81;100.00;100080.69;4971334;28;20298;-79
2023/09/13 03:41:03;;;;;;;3.17;2.87;;;;;;;20.82;100.00;100085.00;4972940;28;20685;-81
2023/09/13 03:43:28;;;;;;;3.83;3.43;;;;;;;20.83;100.00;100087.59;4966504;28;20270;-79
2023/09/13 03:45:54;;;;;;;4.07;3.00;;;;;;;20.83;100.00;100078.81;4971368;28;20274;-81
2023/09/13 03:48:19;;;;;;;4.57;2.93;;;;;;;20.83;100.00;100089.34;4966626;28;20302;-79
2023/09/13 03:50:44;;;;;;;4.00;3.70;;;;;;;20.82;100.00;100098.16;4969740;28;20962;-79
2023/09/13 03:53:09;;;;;;;3.83;3.50;;;;;;;20.81;100.00;100091.22;4971327;28;20705;-79
2023/09/13 03:55:35;;;;;;;3.63;3.33;;;;;;;20.81;100.00;100093.84;4971990;28;20217;-79
2023/09/13 03:58:00;;;;;;;3.30;3.10;;;;;;;20.81;100.00;100088.56;4966729;28;20217;-80
2023/09/13 04:00:26;;;;;;;3.60;3.40;;;;;;;20.82;100.00;100092.91;4961383;28;20198;-79
2023/09/13 04:02:52;;;;;;;3.50;3.20;;;;;;;;;;4966833;28;20753;-79
2023/09/13 04:05:17;;;;;;;4.57;3.00;;;;;;;20.82;100.00;100087.66;4967033;28;20185;-80
2023/09/13 04:07:42;;;;;;;3.40;3.13;;;;;;;20.82;100.00;100090.28;4965749;28;20181;-79
2023/09/13 04:10:07;;;;;;;3.30;3.10;;;;;;;20.82;100.00;100090.28;4968071;28;20190;-79
2023/09/13 04:12:33;;;;;;;3.53;3.23;;;;;;;20.79;100.00;100087.84;4964318;28;20235;-79
2023/09/13 04:14:58;;;;;;;4.17;3.80;;;;;;;20.77;100.00;100095.78;4971227;28;20573;-80
2023/09/13 04:17:23;;;;;;;3.40;3.10;;;;;;;20.75;100.00;100087.13;4966879;28;20193;-79
2023/09/13 04:19:49;;;;;;;4.67;3.30;;;;;;;20.75;100.00;100095.03;4962577;28;20197;-79
2023/09/13 04:22:16;;;;;;;3.40;3.20;;;;;;;20.71;100.00;100094.31;4963949;28;20205;-79
2023/09/13 04:24:42;;;;;;;3.63;3.33;;;;;;;20.71;100.00;100104.00;4967287;28;20178;-79
2023/09/13 04:27:08;;;;;;;3.43;3.10;;;;;;;20.70;100.00;100103.13;4966436;28;20277;-79
2023/09/13 04:29:33;;;;;;;3.50;3.20;;;;;;;20.69;100.00;100104.06;4961951;28;20280;-78
2023/09/13 04:31:59;;;;;;;5.97;3.30;;;;;;;20.68;100.00;100115.50;4957947;28;20229;-78
2023/09/13 04:34:25;;;;;;;3.50;3.20;;;;;;;20.66;100.00;100112.13;4963822;28;20215;-79
2023/09/13 04:36:51;;;;;;;3.80;3.50;;;;;;;20.64;100.00;100108.75;4958160;28;20202;-79
2023/09/13 04:39:16;;;;;;;4.50;4.10;;;;;;;20.63;100.00;100117.56;4958885;28;20884;-79
2023/09/13 04:41:41;;;;;;;5.43;4.20;;;;;;;20.61;100.00;100122.06;4966947;28;20221;-79
2023/09/13 04:44:07;;;;;;;4.20;3.90;;;;;;;20.59;100.00;100118.66;4963989;28;20201;-79
2023/09/13 04:46:32;;;;;;;6.17;4.43;;;;;;;20.59;100.00;100115.16;4961888;28;20285;-78
2023/09/13 04:48:57;;;;;;;4.10;3.70;;;;;;;20.57;100.00;100115.25;4960811;28;20189;-79
2023/09/13 04:51:23;;;;;;;4.30;3.97;;;;;;;20.54;100.00;100123.28;4967064;28;20197;-78
2023/09/13 04:53:48;;;;;;;4.30;3.90;;;;;;;20.52;100.00;100123.41;4970165;28;20295;-79
2023/09/13 04:56:13;;;;;;;4.40;4.10;;;;;;;20.51;100.00;100126.94;4964994;28;20564;-79
2023/09/13 04:58:39;;;;;;;4.30;3.90;;;;;;;20.49;100.00;100128.81;4958136;28;20193;-77
2023/09/13 05:01:04;;;;;;;4.03;3.73;;;;;;;20.49;100.00;100138.50;4963578;28;20225;-77
2023/09/13 05:03:29;;;;;;;3.90;3.60;;;;;;;20.48;100.00;100136.78;4961055;28;20225;-80
2023/09/13 05:05:55;;;;;;;4.10;3.80;;;;;;;20.47;100.00;100137.72;4956115;28;20220;-79
2023/09/13 05:08:21;;;;;;;4.00;3.70;;;;;;;20.46;100.00;100134.22;4961742;28;20198;-78
2023/09/13 05:10:46;;;;;;;4.33;4.03;;;;;;;20.45;100.00;100131.69;4961382;28;20770;-79
2023/09/13 05:13:12;;;;;;;4.30;4.00;;;;;;;20.46;100.00;100134.22;4964303;28;20310;-80
2023/09/13 05:15:42;;;;;;;4.73;4.33;;;;;;;20.46;100.00;100131.59;4962130;28;20251;-79
2023/09/13 05:18:08;;;;;;;4.67;4.37;;;;;;;20.46;100.00;100133.38;4960269;28;20221;-80
2023/09/13 05:20:33;;;;;;;4.70;4.30;;;;;;;20.45;100.00;100131.69;4954410;28;20213;-79
2023/09/13 05:22:58;;;;;;;4.73;4.33;;;;;;;20.45;100.00;100134.31;4964949;28;21088;-80
2023/09/13 05:25:24;;;;;;;4.40;3.97;;;;;;;20.43;100.00;100139.63;4963727;28;20183;-79
2023/09/13 05:27:49;;;;;;;4.53;4.17;;;;;;;20.43;100.00;100139.63;4960410;28;20190;-77
2023/09/13 05:30:14;;;;;;;4.30;4.00;;;;;;;20.46;100.00;100146.53;4961602;28;20194;-79
2023/09/13 05:32:40;;;;;;;4.90;4.50;;;;;;;20.46;100.00;100143.91;4962744;28;20218;-80
2023/09/13 05:35:05;;;;;;;4.90;4.50;;;;;;;20.47;100.00;100151.69;4969673;28;20214;-80
2023/09/13 05:37:31;;;;;;;4.77;4.37;;;;;;;20.48;100.00;100161.28;4955566;28;20195;-80
2023/09/13 05:39:58;;;;;;;5.13;4.70;;;;;;;20.48;100.00;100152.56;4956057;28;20281;-79
2023/09/13 05:42:23;;;;;;;4.87;4.47;;;;;;;20.49;100.00;100167.41;4961107;28;20214;-80
2023/09/13 05:44:48;;;;;;;4.70;4.30;;;;;;;20.50;100.00;100166.44;4956137;28;20671;-79
2023/09/13 05:47:14;;;;;;;4.93;4.53;;;;;;;20.52;100.00;100172.47;4961885;28;20193;-80
2023/09/13 05:49:39;;;;;;;5.33;4.83;;;;;;;20.52;100.00;100172.47;4964286;28;20194;-80
2023/09/13 05:52:05;;;;;;;5.40;4.90;;;;;;;20.51;100.00;100179.53;4962279;28;20182;-79
2023/09/13 05:54:30;;;;;;;5.80;5.23;;;;;;;20.51;100.00;100183.91;4955684;28;20228;-79
2023/09/13 05:56:56;;;;;;;4.93;4.53;;;;;;;20.49;100.00;100189.25;4965745;28;20196;-79
2023/09/13 05:59:22;;;;;;;4.87;4.57;;;;;;;20.47;100.00;100187.66;4968997;28;20190;-80
2023/09/13 06:01:47;;;;;;;5.50;4.93;;;;;;;20.45;100.00;100185.09;4937782;28;1073103;-79
2023/09/13 06:04:12;;;;;;;5.53;5.13;;;;;;;20.44;100.00;100188.66;4967782;28;20208;-80
2023/09/13 06:06:38;;;;;;;6.00;5.50;;;;;;;20.44;100.00;100191.28;4973194;28;20280;-80
2023/09/13 06:09:03;;;;;;;5.87;5.37;;;;;;;20.39;100.00;100188.88;4973819;28;20194;-79
2023/09/13 06:11:29;;;;;;;5.97;5.47;;;;;;;20.39;100.00;100195.94;4973087;28;20194;-80
2023/09/13 06:13:55;;;;;;;5.50;5.10;;;;;;;20.37;100.00;100193.38;4969529;28;20289;-80
2023/09/13 06:16:20;;;;;;;5.07;4.67;;;;;;;20.37;100.00;100198.63;4961717;28;20307;-80
2023/09/13 06:18:45;;;;;;;5.87;5.37;;;;;;;20.38;100.00;100204.75;4970150;28;20684;-79
2023/09/13 06:21:12;;;;;;;4.80;4.40;;;;;;;20.41;100.00;100215.09;4973427;28;20734;-79
2023/09/13 06:23:39;;;;;;;5.30;4.97;;;;;;;20.45;100.00;100210.53;4973438;28;20234;-81
2023/09/13 06:26:04;;;;;;;5.90;5.33;;;;;;;20.50;100.00;100212.00;4973267;28;20255;-79
2023/09/13 06:28:31;;;;;;;5.60;5.20;;;;;;;20.55;100.00;100222.25;4970208;28;20217;-80
2023/09/13 06:30:58;;;;;;;5.70;5.20;;;;;;;20.60;100.00;100224.66;4966275;28;20191;-78
2023/09/13 06:33:24;;;;;;;5.40;5.00;;;;;;;20.65;100.00;100227.91;4966816;28;20213;-79
2023/09/13 06:35:50;;;;;;;5.73;5.33;;;;;;;20.68;100.00;100225.94;4968606;28;20287;-80
2023/09/13 06:38:16;;;;;;;4.97;4.57;;;;;;;20.73;100.00;100238.84;4972410;28;20266;-78
2023/09/13 06:40:43;;;;;;;6.13;5.53;;;;;;;20.79;100.00;100232.47;4970305;28;20209;-80
2023/09/13 06:43:10;;;;;;;5.40;5.00;;;;;;;20.81;100.00;100238.47;4970772;28;20206;-79
2023/09/13 06:45:35;;;;;;;5.73;5.30;;;;;;;20.85;100.00;100234.78;4978665;28;20177;-79
2023/09/13 06:48:01;;;;;;;5.77;5.17;;;;;;;20.86;100.00;100239.97;4992272;28;20242;-81
2023/09/13 06:50:26;;;;;;;12.13;5.77;;;;;;;20.90;100.00;100247.66;4979054;28;20244;-81
2023/09/13 06:52:51;;;;;;;8.00;5.37;;;;;;;20.93;100.00;100243.13;4966301;28;20214;-78
2023/09/13 06:55:17;;;;;;;5.57;5.07;;;;;;;20.98;100.00;100245.50;4960784;28;20741;-79
2023/09/13 06:57:43;;;;;;;5.67;4.93;;;;;;;21.02;100.00;100254.94;4959106;28;20297;-77
2023/09/13 07:00:09;;;;;;;5.20;4.80;;;;;;;21.05;100.00;100246.03;4963216;28;20197;-79
2023/09/13 07:02:34;;;;;;;5.50;5.03;;;;;;;21.10;100.00;100238.75;4960561;28;20221;-78
2023/09/13 07:05:00;;;;;;;5.43;4.93;;;;;;;21.11;100.00;100243.03;4966791;28;20192;-78
2023/09/13 07:07:25;;;;;;;5.37;4.97;;;;;;;21.15;100.00;100244.59;4969217;28;20297;-78
2023/09/13 07:09:51;;;;;;;7.10;5.80;;;;;;;21.20;100.00;100244.34;4955264;28;20206;-78
2023/09/13 07:12:16;;;;;;;5.43;5.03;;;;;;;21.20;100.00;100244.34;4959367;28;20736;-78
2023/09/13 07:14:41;;;;;;;6.23;5.23;;;;;;;21.23;100.00;100244.16;4963404;28;20213;-80
2023/09/13 07:17:07;;;;;;;6.10;5.60;;;;;;;21.25;100.00;100245.78;4957145;28;20218;-78
2023/09/13 07:19:32;;;;;;;6.00;5.50;;;;;;;21.27;100.00;100250.97;4960989;28;20279;-82
2023/09/13 07:21:57;;;;;;;5.53;5.00;;;;;;;21.31;100.00;100252.50;4957312;28;20217;-79
2023/09/13 07:24:23;;;;;;;6.20;5.70;;;;;;;21.37;100.00;100257.44;4973212;28;20198;-80
2023/09/13 07:26:48;;;;;;;5.87;5.43;;;;;;;21.40;100.00;100249.38;4967490;28;20193;-78
2023/09/13 07:29:13;;;;;;;5.57;5.07;;;;;;;21.44;100.00;100256.16;4962664;28;20182;-78
2023/09/13 07:31:39;;;;;;;5.97;5.47;;;;;;;21.54;100.00;100251.25;4965098;28;20182;-78
2023/09/13 07:34:04;;;;;;;5.30;4.90;;;;;;;21.66;100.00;100248.88;4965823;28;20205;-78
2023/09/13 07:36:30;;;;;;;5.10;4.70;;;;;;;21.83;100.00;100253.19;4974846;28;20189;-80
2023/09/13 07:38:55;;;;;;;5.40;5.00;;;;;;;21.98;100.00;100249.69;4958358;28;22353;-79
2023/09/13 07:41:21;;;;;;;5.57;5.07;;;;;;;22.12;100.00;100253.31;4966145;28;20325;-79
2023/09/13 07:43:46;;;;;;;4.97;4.57;;;;;;;22.25;100.00;100246.38;4965750;28;20210;-79
2023/09/13 07:46:12;;;;;;;5.50;4.77;;;;;;;22.36;100.00;100257.16;4964443;28;20191;-79
2023/09/13 07:48:37;;;;;;;5.77;5.10;;;;;;;22.45;100.00;100260.22;4970015;28;20189;-79
2023/09/13 07:51:04;;;;;;;4.97;4.57;;;;;;;22.49;100.00;100262.56;4971312;28;20197;-79
2023/09/13 07:53:30;;;;;;;4.70;4.30;;;;;;;22.49;100.00;100270.47;4966757;28;20713;-79
2023/09/13 07:55:59;;;;;;;4.63;4.23;;;;;;;22.45;100.00;100266.34;4975205;28;20229;-79
2023/09/13 07:58:24;;;;;;;4.57;4.20;;;;;;;22.43;100.00;100270.00;4975398;28;20236;-79
2023/09/13 08:00:50;;;;;;;4.63;4.23;;;;;;;22.44;100.00;100279.59;4973099;28;20213;-79
2023/09/13 08:03:15;;;;;;;5.20;4.80;;;;;;;22.46;100.00;100278.56;4968203;28;20220;-79
2023/09/13 08:05:42;;;;;;;5.20;4.70;;;;;;;22.47;100.00;100282.91;4968415;28;20182;-79
2023/09/13 08:08:09;;;;;;;4.70;4.27;;;;;;;22.51;100.00;100280.97;4967666;28;20292;-80
2023/09/13 08:10:34;;;;;;;5.50;5.00;;;;;;;22.53;100.00;100287.00;4970274;28;20189;-79
2023/09/13 08:12:59;;;;;;;5.37;4.90;;;;;;;22.58;100.00;100289.34;4970942;28;20228;-79
2023/09/13 08:15:25;;;;;;;5.13;4.73;;;;;;;22.61;100.00;100289.19;4969082;28;20197;-80
2023/09/13 08:17:50;;;;;;;5.17;4.67;;;;;;;22.68;100.00;100282.56;4972555;28;20206;-80
2023/09/13 08:20:15;;;;;;;5.60;5.10;;;;;;;22.78;100.00;100296.06;4973663;28;20797;-80
2023/09/13 08:22:41;;;;;;;5.00;4.60;;;;;;;22.89;100.00;100296.25;4967766;28;20880;-80
2023/09/13 08:25:07;;;;;;;5.27;4.77;;;;;;;22.99;100.00;100291.28;4976338;28;20193;-79
2023/09/13 08:27:33;;;;;;;5.47;5.07;;;;;;;23.03;100.00;100295.44;4977128;28;20189;-80
2023/09/13 08:29:58;;;;;;;5.30;4.90;;;;;;;23.04;100.00;100294.50;4969415;28;20200;-81
2023/09/13 08:32:23;;;;;;;6.30;5.07;;;;;;;23.08;100.00;100301.25;4960354;28;20572;-80
2023/09/13 08:34:49;;;;;;;5.70;5.20;;;;;;;23.12;100.00;100300.13;4963385;28;20586;-78
2023/09/13 08:37:15;;;;;;;4.80;4.37;;;;;;;23.17;100.00;100301.66;4963368;28;20182;-79
2023/09/13 08:39:41;;;;;;;7.03;4.63;;;;;;;23.27;100.00;100297.53;4967687;28;20210;-80
2023/09/13 08:42:06;;;;;;;4.77;4.37;;;;;;;23.33;100.00;100299.78;4973980;28;20213;-80
2023/09/13 08:44:34;;;;;;;4.73;4.33;;;;;;;23.39;100.00;100293.28;4983877;28;20188;-79
2023/09/13 08:47:02;;;;;;;4.83;4.43;;;;;;;23.44;100.00;100294.69;4967249;28;20551;-79
2023/09/13 08:49:28;;;;;;;5.17;4.67;;;;;;;23.48;100.00;100294.50;4971002;28;20685;-80
2023/09/13 08:51:55;;;;;;;5.23;4.73;;;;;;;23.52;100.00;100311.84;4977469;28;20189;-80
2023/09/13 08:54:21;;;;;;;5.30;4.80;;;;;;;23.55;100.00;100309.84;4970262;28;20217;-79
2023/09/13 08:56:46;;;;;;;5.07;4.67;;;;;;;23.62;100.00;100305.03;4966674;28;20186;-79
2023/09/13 08:59:16;;;;;;;5.27;4.77;;;;;;;23.65;100.00;100304.84;4961486;28;20190;-80
2023/09/13 09:01:46;;;;;;;5.87;5.37;;;;;;;23.72;100.00;100313.22;4979416;28;20186;-79
2023/09/13 09:04:14;;;;;;;5.03;4.60;;;;;;;23.86;100.00;100312.31;4967413;28;20689;-80
2023/09/13 09:06:40;;;;;;;4.97;4.57;;;;;;;24.03;100.00;100313.91;4964481;28;20683;-80
2023/09/13 09:09:07;;;;;;;4.80;4.50;;;;;;;24.19;100.00;100311.09;4982128;28;20190;-79
2023/09/13 09:11:35;;;;;;;5.07;4.67;;;;;;;24.24;100.00;100314.28;4981472;28;20186;-78
2023/09/13 09:14:01;;;;;;;5.40;4.60;;;;;;;24.29;100.00;100319.28;4973820;28;20204;-80
2023/09/13 09:16:28;;;;;;;4.83;4.43;;;;;;;24.30;100.00;100319.16;4971376;28;20213;-78
2023/09/13 09:18:54;;;;;;;4.80;4.40;;;;;;;24.34;100.00;100320.66;4976475;28;20193;-79
2023/09/13 09:21:20;;;;;;;5.47;4.97;;;;;;;24.34;100.00;100325.94;4963056;28;20199;-78
2023/09/13 09:23:45;;;;;;;4.67;4.27;;;;;;;24.32;100.00;100319.91;4958623;28;20218;-80
2023/09/13 09:26:11;;;;;;;5.17;4.77;;;;;;;24.32;100.00;100330.50;4964354;28;20228;-80
2023/09/13 09:28:36;;;;;;;5.00;4.60;;;;;;;24.41;100.00;100330.84;4970606;28;20615;-79
2023/09/13 09:31:02;;;;;;;5.33;4.93;;;;;;;24.47;100.00;100335.72;4964300;28;20201;-79
2023/09/13 09:33:29;;;;;;;5.27;4.87;;;;;;;24.56;100.00;100331.59;4980300;28;20213;-80
2023/09/13 09:35:57;;;;;;;4.80;4.40;;;;;;;24.64;100.00;100330.13;4978200;28;20301;-80
2023/09/13 09:38:24;;;;;;;5.87;5.37;;;;;;;24.57;100.00;100334.16;4963222;28;20669;-80
2023/09/13 09:40:50;;;;;;;5.33;4.80;;;;;;;24.64;100.00;100335.44;4969452;28;20193;-80
2023/09/13 09:43:16;;;;;;;5.37;4.97;;;;;;;24.73;100.00;100334.00;4964500;28;20201;-80
2023/09/13 09:45:41;;;;;;;5.37;4.87;;;;;;;24.82;100.00;100340.47;4972187;28;20190;-80
2023/09/13 09:48:08;;;;;;;5.33;4.93;;;;;;;24.86;100.00;100339.31;4965157;28;20508;-80
2023/09/13 09:50:33;;;;;;;5.23;4.73;;;;;;;24.89;100.00;100344.38;4965232;28;20190;-79
2023/09/13 09:52:59;;;;;;;5.57;5.17;;;;;;;24.94;100.00;100336.97;4970030;28;20978;-79
2023/09/13 09:55:28;;;;;;;4.93;4.60;;;;;;;25.00;100.00;100340.16;4968975;28;20689;-80
2023/09/13 09:57:54;;;;;;;4.83;4.53;;;;;;;25.04;100.00;100333.66;4963634;28;20190;-79
2023/09/13 10:00:22;;;;;;;5.23;4.83;;;;;;;25.14;100.00;100340.03;4980342;28;20638;-78
2023/09/13 10:02:48;;;;;;;5.07;4.57;;;;;;;25.23;99.57;100335.91;4979456;28;20591;-78
2023/09/13 10:05:16;;;;;;;5.10;4.60;;;;;;;25.29;99.11;100327.50;4964690;28;20682;-79
2023/09/13 10:07:54;;;;;;;4.93;4.47;;;;;;;25.38;98.67;100320.72;4977602;28;20193;-79
2023/09/13 10:10:30;;;;;;;4.80;4.40;;;;;;;25.48;98.66;100328.91;4964452;28;20678;-78
2023/09/13 10:12:55;;;;;;;5.13;4.63;;;;;;;25.49;98.35;100331.44;4972923;28;20217;-78
2023/09/13 10:15:21;;;;;;;4.60;4.20;;;;;;;25.51;98.01;100326.88;4959037;28;20206;-78
2023/09/13 10:17:48;;;;;;;4.83;4.43;;;;;;;25.58;97.58;100332.56;4967425;28;20202;-81
2023/09/13 10:20:17;;;;;;;4.83;4.43;;;;;;;25.64;97.04;100331.31;4982905;28;20284;-79
2023/09/13 10:22:45;;;;;;;4.60;4.20;;;;;;;25.68;96.08;100333.63;4970028;28;20208;-78
2023/09/13 10:25:14;;;;;;;4.90;4.50;;;;;;;25.75;95.77;100331.38;4962028;28;20178;-80
2023/09/13 10:27:42;;;;;;;4.50;4.10;;;;;;;25.89;94.88;100317.09;4966544;28;20195;-81
2023/09/13 10:30:10;;;;;;;4.60;4.20;;;;;;;25.98;94.60;100327.06;4965972;28;20265;-80
2023/09/13 10:32:48;;;;;;;4.20;3.90;;;;;;;26.09;94.13;100325.41;4971470;28;20205;-80
2023/09/13 10:35:15;;;;;;;4.57;4.27;;;;;;;26.14;94.03;100323.28;4975167;28;20262;-81
2023/09/13 10:38:16;;;;;;;4.23;3.93;;;;;;;26.15;94.21;100327.66;4974052;28;20284;-79
2023/09/13 10:40:46;;;;;;;4.50;4.20;;;;;;;26.05;93.61;100322.13;5001823;28;20225;-79
2023/09/13 10:43:13;;;;;;;4.27;3.87;;;;;;;26.06;93.52;100325.63;4994342;28;20210;-79
2023/09/13 10:45:41;;;;;;;4.23;3.93;;;;;;;26.18;93.17;100324.75;4973439;28;20190;-79
2023/09/13 10:48:08;;;;;;;4.43;4.03;;;;;;;26.14;93.21;100326.78;4963952;28;20285;-79
2023/09/13 10:50:33;;;;;;;4.00;3.70;;;;;;;26.22;93.36;100326.22;4963459;28;20195;-78
2023/09/13 10:53:00;;;;;;;4.50;4.03;;;;;;;26.16;91.31;100327.53;4963049;28;20656;-80
2023/09/13 10:55:26;;;;;;;4.13;3.73;;;;;;;26.32;91.17;100332.50;4973646;28;20233;-79
2023/09/13 10:57:52;;;;;;;4.00;3.70;;;;;;;26.46;90.47;100328.00;4959687;28;20194;-80
2023/09/13 11:00:19;;;;;;;4.10;3.80;;;;;;;26.51;90.28;100323.16;4979718;28;20225;-79
2023/09/13 11:02:45;;;;;;;3.90;3.60;;;;;;;26.57;90.34;100324.50;4976351;28;20710;-80
2023/09/13 11:05:12;;;;;;;3.50;3.20;;;;;;;26.59;90.06;100325.25;4974230;28;20476;-81
2023/09/13 11:07:46;;;;;;;3.50;3.20;;;;;;;26.60;90.06;100332.25;4966704;28;20270;-79
2023/09/13 11:10:14;;;;;;;3.40;3.17;;;;;;;26.58;89.69;100323.56;4975913;28;20181;-79
2023/09/13 11:12:40;;;;;;;3.90;3.60;;;;;;;26.62;89.50;100335.63;4969854;28;20214;-78
2023/09/13 11:15:13;;;;;;;3.90;3.60;;;;;;;26.60;89.95;100333.09;4965591;28;20212;-80
2023/09/13 11:17:41;;;;;;;4.03;3.73;;;;;;;26.61;89.59;100333.94;4968603;28;20642;-80